sensor_id;sensor_type;location;lat;lon;timestamp;temperature;humidity
12268;DHT22;6196;48.398;11.736;2023-04-24T00:01:46;11.30;99.90
12268;DHT22;6196;48.398;11.736;2023-04-24T00:04:13;11.20;99.90
12268;DHT22;6196;48.398;11.736;2023-04-24T00:06:40;11.10;99.90
12268;DHT22;6196;48.398;11.736;2023-04-24T00:09:09;11.30;99.90
12268;DHT22;6196;48.398;11.736;2023-04-24T00:11:36;11.30;99.90
12268;DHT22;6196;48.398;11.736;2023-04-24T00:14:03;11.40;99.90
12268;DHT22;6196;48.398;11.736;2023-04-24T00:16:30;11.30;99.90
12268;DHT22;6196;48.398;11.736;2023-04-24T00:18:57;11.30;99.90
12268;DHT22;6196;48.398;11.736;2023-04-24T00:21:24;11.30;99.90
12268;DHT22;6196;48.398;11.736;2023-04-24T00:23:52;11.30;99.90
12268;DHT22;6196;48.398;11.736;2023-04-24T00:26:19;11.30;99.90
12268;DHT22;6196;48.398;11.736;2023-04-24T00:28:46;11.30;99.90
12268;DHT22;6196;48.398;11.736;2023-04-24T00:31:13;11.40;99.90
12268;DHT22;6196;48.398;11.736;2023-04-24T00:33:40;11.40;99.90
12268;DHT22;6196;48.398;11.736;2023-04-24T00:36:07;11.30;99.90
12268;DHT22;6196;48.398;11.736;2023-04-24T00:38:34;11.40;99.90
12268;DHT22;6196;48.398;11.736;2023-04-24T00:41:01;11.30;99.90
12268;DHT22;6196;48.398;11.736;2023-04-24T00:43:28;11.20;99.90
12268;DHT22;6196;48.398;11.736;2023-04-24T00:45:55;11.20;99.90
12268;DHT22;6196;48.398;11.736;2023-04-24T00:48:23;11.20;99.90
12268;DHT22;6196;48.398;11.736;2023-04-24T00:50:50;11.20;99.90
12268;DHT22;6196;48.398;11.736;2023-04-24T00:53:17;11.20;99.90
12268;DHT22;6196;48.398;11.736;2023-04-24T00:55:44;11.10;99.90
12268;DHT22;6196;48.398;11.736;2023-04-24T00:58:12;11.00;99.90
12268;DHT22;6196;48.398;11.736;2023-04-24T01:00:39;11.00;99.90
12268;DHT22;6196;48.398;11.736;2023-04-24T01:03:06;11.00;99.90
12268;DHT22;6196;48.398;11.736;2023-04-24T01:05:34;11.00;99.90
12268;DHT22;6196;48.398;11.736;2023-04-24T01:08:01;11.00;99.90
12268;DHT22;6196;48.398;11.736;2023-04-24T01:10:29;11.00;99.90
12268;DHT22;6196;48.398;11.736;2023-04-24T01:12:58;11.00;99.90
12268;DHT22;6196;48.398;11.736;2023-04-24T01:15:26;11.00;99.90
12268;DHT22;6196;48.398;11.736;2023-04-24T01:17:53;11.10;99.90
12268;DHT22;6196;48.398;11.736;2023-04-24T01:20:20;11.10;99.90
12268;DHT22;6196;48.398;11.736;2023-04-24T01:22:47;11.10;99.90
12268;DHT22;6196;48.398;11.736;2023-04-24T01:25:14;11.20;99.90
12268;DHT22;6196;48.398;11.736;2023-04-24T01:27:41;11.10;99.90
12268;DHT22;6196;48.398;11.736;2023-04-24T01:30:08;11.10;99.90
12268;DHT22;6196;48.398;11.736;2023-04-24T01:32:37;10.90;99.90
12268;DHT22;6196;48.398;11.736;2023-04-24T01:35:05;10.90;99.90
12268;DHT22;6196;48.398;11.736;2023-04-24T01:37:32;10.90;99.90
12268;DHT22;6196;48.398;11.736;2023-04-24T01:39:59;10.90;99.90
12268;DHT22;6196;48.398;11.736;2023-04-24T01:42:26;10.90;99.90
12268;DHT22;6196;48.398;11.736;2023-04-24T01:44:53;10.90;99.90
12268;DHT22;6196;48.398;11.736;2023-04-24T01:47:21;10.90;99.90
12268;DHT22;6196;48.398;11.736;2023-04-24T01:49:48;10.90;99.90
12268;DHT22;6196;48.398;11.736;2023-04-24T01:52:16;10.80;99.90
12268;DHT22;6196;48.398;11.736;2023-04-24T01:54:45;10.80;99.90
12268;DHT22;6196;48.398;11.736;2023-04-24T01:57:12;10.70;99.90
12268;DHT22;6196;48.398;11.736;2023-04-24T01:59:38;10.60;99.90
12268;DHT22;6196;48.398;11.736;2023-04-24T02:02:05;10.50;99.90
12268;DHT22;6196;48.398;11.736;2023-04-24T02:04:32;10.70;99.90
12268;DHT22;6196;48.398;11.736;2023-04-24T02:06:59;10.60;99.90
12268;DHT22;6196;48.398;11.736;2023-04-24T02:09:26;10.60;99.90
12268;DHT22;6196;48.398;11.736;2023-04-24T02:11:53;10.60;99.90
12268;DHT22;6196;48.398;11.736;2023-04-24T02:14:20;10.60;99.90
12268;DHT22;6196;48.398;11.736;2023-04-24T02:16:47;10.50;99.90
12268;DHT22;6196;48.398;11.736;2023-04-24T02:19:14;10.50;99.90
12268;DHT22;6196;48.398;11.736;2023-04-24T02:21:40;10.40;99.90
12268;DHT22;6196;48.398;11.736;2023-04-24T02:24:07;10.30;99.90
12268;DHT22;6196;48.398;11.736;2023-04-24T02:26:34;10.40;99.90
12268;DHT22;6196;48.398;11.736;2023-04-24T02:29:01;10.30;99.90
12268;DHT22;6196;48.398;11.736;2023-04-24T02:31:28;10.40;99.90
12268;DHT22;6196;48.398;11.736;2023-04-24T02:33:55;10.30;99.90
12268;DHT22;6196;48.398;11.736;2023-04-24T02:36:22;10.30;99.90
12268;DHT22;6196;48.398;11.736;2023-04-24T02:38:48;10.40;99.90
12268;DHT22;6196;48.398;11.736;2023-04-24T02:41:15;10.30;99.90
12268;DHT22;6196;48.398;11.736;2023-04-24T02:43:42;10.40;99.90
12268;DHT22;6196;48.398;11.736;2023-04-24T02:46:09;10.40;99.90
12268;DHT22;6196;48.398;11.736;2023-04-24T02:48:36;10.40;99.90
12268;DHT22;6196;48.398;11.736;2023-04-24T02:51:03;10.40;99.90
12268;DHT22;6196;48.398;11.736;2023-04-24T02:53:30;10.40;99.90
12268;DHT22;6196;48.398;11.736;2023-04-24T02:55:57;10.40;99.90
12268;DHT22;6196;48.398;11.736;2023-04-24T02:58:24;10.40;99.90
12268;DHT22;6196;48.398;11.736;2023-04-24T03:00:54;10.30;99.90
12268;DHT22;6196;48.398;11.736;2023-04-24T03:03:22;10.40;99.90
12268;DHT22;6196;48.398;11.736;2023-04-24T03:05:50;10.30;99.90
12268;DHT22;6196;48.398;11.736;2023-04-24T03:08:17;10.20;99.90
12268;DHT22;6196;48.398;11.736;2023-04-24T03:10:44;10.20;99.90
12268;DHT22;6196;48.398;11.736;2023-04-24T03:13:14;10.20;99.90
12268;DHT22;6196;48.398;11.736;2023-04-24T03:15:42;10.00;99.90
12268;DHT22;6196;48.398;11.736;2023-04-24T03:18:09;10.00;99.90
12268;DHT22;6196;48.398;11.736;2023-04-24T03:20:36;10.00;99.90
12268;DHT22;6196;48.398;11.736;2023-04-24T03:23:04;10.10;99.90
12268;DHT22;6196;48.398;11.736;2023-04-24T03:25:30;10.20;99.90
12268;DHT22;6196;48.398;11.736;2023-04-24T03:27:57;10.20;99.90
12268;DHT22;6196;48.398;11.736;2023-04-24T03:30:24;10.10;99.90
12268;DHT22;6196;48.398;11.736;2023-04-24T03:32:51;10.10;99.90
12268;DHT22;6196;48.398;11.736;2023-04-24T03:35:18;10.20;99.90
12268;DHT22;6196;48.398;11.736;2023-04-24T03:37:45;10.20;99.90
12268;DHT22;6196;48.398;11.736;2023-04-24T03:40:12;10.20;99.90
12268;DHT22;6196;48.398;11.736;2023-04-24T03:42:39;10.20;99.90
12268;DHT22;6196;48.398;11.736;2023-04-24T03:45:07;10.10;99.90
12268;DHT22;6196;48.398;11.736;2023-04-24T03:47:34;10.10;99.90
12268;DHT22;6196;48.398;11.736;2023-04-24T03:50:02;10.10;99.90
12268;DHT22;6196;48.398;11.736;2023-04-24T03:52:29;10.10;99.90
12268;DHT22;6196;48.398;11.736;2023-04-24T03:54:58;10.00;99.90
12268;DHT22;6196;48.398;11.736;2023-04-24T03:57:24;10.10;99.90
12268;DHT22;6196;48.398;11.736;2023-04-24T03:59:51;10.00;99.90
12268;DHT22;6196;48.398;11.736;2023-04-24T04:02:20;10.10;99.90
12268;DHT22;6196;48.398;11.736;2023-04-24T04:04:47;10.10;99.90
12268;DHT22;6196;48.398;11.736;2023-04-24T04:07:14;10.10;99.90
12268;DHT22;6196;48.398;11.736;2023-04-24T04:09:41;10.10;99.90
12268;DHT22;6196;48.398;11.736;2023-04-24T04:12:08;10.10;99.90
12268;DHT22;6196;48.398;11.736;2023-04-24T04:14:35;10.00;99.90
12268;DHT22;6196;48.398;11.736;2023-04-24T04:17:02;10.00;99.90
12268;DHT22;6196;48.398;11.736;2023-04-24T04:19:28;10.10;99.90
12268;DHT22;6196;48.398;11.736;2023-04-24T04:21:56;10.10;99.90
12268;DHT22;6196;48.398;11.736;2023-04-24T04:24:22;10.10;99.90
12268;DHT22;6196;48.398;11.736;2023-04-24T04:26:50;10.10;99.90
12268;DHT22;6196;48.398;11.736;2023-04-24T04:29:18;10.10;99.90
12268;DHT22;6196;48.398;11.736;2023-04-24T04:31:45;10.10;99.90
12268;DHT22;6196;48.398;11.736;2023-04-24T04:34:12;10.10;99.90
12268;DHT22;6196;48.398;11.736;2023-04-24T04:36:41;10.00;99.90
12268;DHT22;6196;48.398;11.736;2023-04-24T04:39:09;10.10;99.90
12268;DHT22;6196;48.398;11.736;2023-04-24T04:41:36;10.10;99.90
12268;DHT22;6196;48.398;11.736;2023-04-24T04:44:04;10.20;99.90
12268;DHT22;6196;48.398;11.736;2023-04-24T04:46:31;10.20;99.90
12268;DHT22;6196;48.398;11.736;2023-04-24T04:49:03;10.20;99.90
12268;DHT22;6196;48.398;11.736;2023-04-24T04:51:30;10.20;99.90
12268;DHT22;6196;48.398;11.736;2023-04-24T04:53:57;10.20;99.90
12268;DHT22;6196;48.398;11.736;2023-04-24T04:56:24;10.30;99.90
12268;DHT22;6196;48.398;11.736;2023-04-24T04:58:51;10.30;99.90
12268;DHT22;6196;48.398;11.736;2023-04-24T05:01:18;10.30;99.90
12268;DHT22;6196;48.398;11.736;2023-04-24T05:03:45;10.30;99.90
12268;DHT22;6196;48.398;11.736;2023-04-24T05:06:12;10.30;99.90
12268;DHT22;6196;48.398;11.736;2023-04-24T05:08:39;10.30;99.90
12268;DHT22;6196;48.398;11.736;2023-04-24T05:11:06;10.20;99.90
12268;DHT22;6196;48.398;11.736;2023-04-24T05:13:33;10.30;99.90
12268;DHT22;6196;48.398;11.736;2023-04-24T05:16:06;10.30;99.90
12268;DHT22;6196;48.398;11.736;2023-04-24T05:18:33;10.30;99.90
12268;DHT22;6196;48.398;11.736;2023-04-24T05:21:04;10.30;99.90
12268;DHT22;6196;48.398;11.736;2023-04-24T05:23:31;10.20;99.90
12268;DHT22;6196;48.398;11.736;2023-04-24T05:25:58;10.40;99.90
12268;DHT22;6196;48.398;11.736;2023-04-24T05:28:25;10.40;99.90
12268;DHT22;6196;48.398;11.736;2023-04-24T05:30:55;10.40;99.90
12268;DHT22;6196;48.398;11.736;2023-04-24T05:33:22;10.40;99.90
12268;DHT22;6196;48.398;11.736;2023-04-24T05:35:49;10.50;99.90
12268;DHT22;6196;48.398;11.736;2023-04-24T05:38:16;10.50;99.90
12268;DHT22;6196;48.398;11.736;2023-04-24T05:40:46;10.50;99.90
12268;DHT22;6196;48.398;11.736;2023-04-24T05:43:13;10.60;99.90
12268;DHT22;6196;48.398;11.736;2023-04-24T05:45:40;10.70;99.90
12268;DHT22;6196;48.398;11.736;2023-04-24T05:48:06;10.80;99.90
12268;DHT22;6196;48.398;11.736;2023-04-24T05:50:33;10.90;99.90
12268;DHT22;6196;48.398;11.736;2023-04-24T05:53:03;10.70;99.90
12268;DHT22;6196;48.398;11.736;2023-04-24T05:55:30;10.70;99.90
12268;DHT22;6196;48.398;11.736;2023-04-24T05:57:57;10.70;99.90
12268;DHT22;6196;48.398;11.736;2023-04-24T06:00:25;10.80;99.90
12268;DHT22;6196;48.398;11.736;2023-04-24T06:02:53;10.90;99.90
12268;DHT22;6196;48.398;11.736;2023-04-24T06:05:21;10.90;99.90
12268;DHT22;6196;48.398;11.736;2023-04-24T06:07:48;10.90;99.90
12268;DHT22;6196;48.398;11.736;2023-04-24T06:10:15;10.80;99.90
12268;DHT22;6196;48.398;11.736;2023-04-24T06:12:42;10.80;99.90
12268;DHT22;6196;48.398;11.736;2023-04-24T06:15:09;10.90;99.90
12268;DHT22;6196;48.398;11.736;2023-04-24T06:17:36;11.00;99.90
12268;DHT22;6196;48.398;11.736;2023-04-24T06:20:04;10.80;99.90
12268;DHT22;6196;48.398;11.736;2023-04-24T06:22:32;10.90;99.90
12268;DHT22;6196;48.398;11.736;2023-04-24T06:24:59;11.00;99.90
12268;DHT22;6196;48.398;11.736;2023-04-24T06:27:27;11.30;99.90
12268;DHT22;6196;48.398;11.736;2023-04-24T06:29:54;11.20;99.90
12268;DHT22;6196;48.398;11.736;2023-04-24T06:32:23;11.50;99.90
12268;DHT22;6196;48.398;11.736;2023-04-24T06:34:51;11.60;99.90
12268;DHT22;6196;48.398;11.736;2023-04-24T06:37:20;11.70;99.90
12268;DHT22;6196;48.398;11.736;2023-04-24T06:39:47;11.80;99.90
12268;DHT22;6196;48.398;11.736;2023-04-24T06:42:13;11.70;99.90
12268;DHT22;6196;48.398;11.736;2023-04-24T06:44:40;11.70;99.90
12268;DHT22;6196;48.398;11.736;2023-04-24T06:47:08;11.90;99.90
12268;DHT22;6196;48.398;11.736;2023-04-24T06:49:37;12.10;99.90
12268;DHT22;6196;48.398;11.736;2023-04-24T06:52:04;11.80;99.90
12268;DHT22;6196;48.398;11.736;2023-04-24T06:54:31;12.00;99.90
12268;DHT22;6196;48.398;11.736;2023-04-24T06:56:59;11.90;99.90
12268;DHT22;6196;48.398;11.736;2023-04-24T06:59:27;12.00;99.90
12268;DHT22;6196;48.398;11.736;2023-04-24T07:01:55;12.00;99.90
12268;DHT22;6196;48.398;11.736;2023-04-24T07:04:22;12.00;99.90
12268;DHT22;6196;48.398;11.736;2023-04-24T07:06:49;12.00;99.90
12268;DHT22;6196;48.398;11.736;2023-04-24T07:09:16;12.10;99.90
12268;DHT22;6196;48.398;11.736;2023-04-24T07:11:45;12.10;99.90
12268;DHT22;6196;48.398;11.736;2023-04-24T07:14:13;12.20;99.90
12268;DHT22;6196;48.398;11.736;2023-04-24T07:16:40;12.10;99.90
12268;DHT22;6196;48.398;11.736;2023-04-24T07:19:07;12.00;99.90
12268;DHT22;6196;48.398;11.736;2023-04-24T07:21:34;12.20;99.90
12268;DHT22;6196;48.398;11.736;2023-04-24T07:24:01;12.20;99.90
12268;DHT22;6196;48.398;11.736;2023-04-24T07:26:31;12.40;99.90
12268;DHT22;6196;48.398;11.736;2023-04-24T07:28:58;12.70;99.90
12268;DHT22;6196;48.398;11.736;2023-04-24T07:31:25;13.10;99.90
12268;DHT22;6196;48.398;11.736;2023-04-24T07:33:52;12.90;99.90
12268;DHT22;6196;48.398;11.736;2023-04-24T07:36:19;13.10;99.90
12268;DHT22;6196;48.398;11.736;2023-04-24T07:38:46;13.50;99.90
12268;DHT22;6196;48.398;11.736;2023-04-24T07:41:13;13.30;99.90
12268;DHT22;6196;48.398;11.736;2023-04-24T07:43:41;13.50;99.90
12268;DHT22;6196;48.398;11.736;2023-04-24T07:46:08;13.60;99.90
12268;DHT22;6196;48.398;11.736;2023-04-24T07:48:36;13.60;99.90
12268;DHT22;6196;48.398;11.736;2023-04-24T07:51:03;13.60;99.90
12268;DHT22;6196;48.398;11.736;2023-04-24T07:53:30;13.40;99.90
12268;DHT22;6196;48.398;11.736;2023-04-24T07:55:57;13.20;99.90
12268;DHT22;6196;48.398;11.736;2023-04-24T07:58:24;13.00;99.90
12268;DHT22;6196;48.398;11.736;2023-04-24T08:00:51;13.10;99.90
12268;DHT22;6196;48.398;11.736;2023-04-24T08:03:18;12.90;99.90
12268;DHT22;6196;48.398;11.736;2023-04-24T08:05:46;12.90;99.90
12268;DHT22;6196;48.398;11.736;2023-04-24T08:08:13;12.80;99.90
12268;DHT22;6196;48.398;11.736;2023-04-24T08:10:41;12.40;99.90
12268;DHT22;6196;48.398;11.736;2023-04-24T08:13:08;12.30;99.90
12268;DHT22;6196;48.398;11.736;2023-04-24T08:15:35;12.00;99.90
12268;DHT22;6196;48.398;11.736;2023-04-24T08:18:02;12.00;99.90
12268;DHT22;6196;48.398;11.736;2023-04-24T08:20:28;12.10;99.90
12268;DHT22;6196;48.398;11.736;2023-04-24T08:22:55;12.00;99.90
12268;DHT22;6196;48.398;11.736;2023-04-24T08:25:23;12.00;99.90
12268;DHT22;6196;48.398;11.736;2023-04-24T08:27:51;12.00;99.90
12268;DHT22;6196;48.398;11.736;2023-04-24T08:30:18;12.20;99.90
12268;DHT22;6196;48.398;11.736;2023-04-24T08:32:45;12.30;99.90
12268;DHT22;6196;48.398;11.736;2023-04-24T08:35:12;12.00;99.90
12268;DHT22;6196;48.398;11.736;2023-04-24T08:37:39;12.00;99.90
12268;DHT22;6196;48.398;11.736;2023-04-24T08:40:12;11.70;99.90
12268;DHT22;6196;48.398;11.736;2023-04-24T08:42:43;11.60;99.90
12268;DHT22;6196;48.398;11.736;2023-04-24T08:45:12;11.10;99.90
12268;DHT22;6196;48.398;11.736;2023-04-24T08:47:40;10.70;99.90
12268;DHT22;6196;48.398;11.736;2023-04-24T08:50:08;10.20;99.90
12268;DHT22;6196;48.398;11.736;2023-04-24T08:52:36;10.10;99.90
12268;DHT22;6196;48.398;11.736;2023-04-24T08:55:03;10.00;99.90
12268;DHT22;6196;48.398;11.736;2023-04-24T08:57:32;10.20;99.90
12268;DHT22;6196;48.398;11.736;2023-04-24T09:00:00;10.30;99.90
12268;DHT22;6196;48.398;11.736;2023-04-24T09:02:28;10.70;99.90
12268;DHT22;6196;48.398;11.736;2023-04-24T09:04:56;11.10;99.90
12268;DHT22;6196;48.398;11.736;2023-04-24T09:07:25;11.50;99.90
12268;DHT22;6196;48.398;11.736;2023-04-24T09:09:54;11.80;99.90
12268;DHT22;6196;48.398;11.736;2023-04-24T09:12:21;12.10;99.90
12268;DHT22;6196;48.398;11.736;2023-04-24T09:14:49;12.20;99.90
12268;DHT22;6196;48.398;11.736;2023-04-24T09:17:16;12.70;99.90
12268;DHT22;6196;48.398;11.736;2023-04-24T09:19:43;12.90;99.90
12268;DHT22;6196;48.398;11.736;2023-04-24T09:22:11;12.90;99.90
12268;DHT22;6196;48.398;11.736;2023-04-24T09:24:38;12.60;99.90
12268;DHT22;6196;48.398;11.736;2023-04-24T09:27:05;12.50;99.90
12268;DHT22;6196;48.398;11.736;2023-04-24T09:29:36;12.20;99.90
12268;DHT22;6196;48.398;11.736;2023-04-24T09:32:32;12.40;99.90
12268;DHT22;6196;48.398;11.736;2023-04-24T09:35:10;12.40;99.90
12268;DHT22;6196;48.398;11.736;2023-04-24T09:37:43;12.40;99.90
12268;DHT22;6196;48.398;11.736;2023-04-24T09:40:20;12.60;99.90
12268;DHT22;6196;48.398;11.736;2023-04-24T09:42:56;12.50;99.90
12268;DHT22;6196;48.398;11.736;2023-04-24T09:45:37;12.60;99.90
12268;DHT22;6196;48.398;11.736;2023-04-24T09:48:09;12.70;99.90
12268;DHT22;6196;48.398;11.736;2023-04-24T09:50:37;13.40;99.90
12268;DHT22;6196;48.398;11.736;2023-04-24T09:53:05;13.60;99.90
12268;DHT22;6196;48.398;11.736;2023-04-24T09:55:39;13.70;99.90
12268;DHT22;6196;48.398;11.736;2023-04-24T09:58:08;13.50;99.90
12268;DHT22;6196;48.398;11.736;2023-04-24T10:00:35;13.60;99.90
12268;DHT22;6196;48.398;11.736;2023-04-24T10:03:04;13.50;99.90
12268;DHT22;6196;48.398;11.736;2023-04-24T10:05:36;13.80;99.90
12268;DHT22;6196;48.398;11.736;2023-04-24T10:08:10;14.00;99.90
12268;DHT22;6196;48.398;11.736;2023-04-24T10:10:42;14.10;99.90
12268;DHT22;6196;48.398;11.736;2023-04-24T10:13:13;14.00;99.90
12268;DHT22;6196;48.398;11.736;2023-04-24T10:15:41;14.10;99.90
12268;DHT22;6196;48.398;11.736;2023-04-24T10:18:10;14.20;99.90
12268;DHT22;6196;48.398;11.736;2023-04-24T10:20:39;14.60;99.90
12268;DHT22;6196;48.398;11.736;2023-04-24T10:23:07;14.80;99.90
12268;DHT22;6196;48.398;11.736;2023-04-24T10:25:35;15.00;99.90
12268;DHT22;6196;48.398;11.736;2023-04-24T10:28:05;15.20;99.90
12268;DHT22;6196;48.398;11.736;2023-04-24T10:30:36;15.40;99.90
12268;DHT22;6196;48.398;11.736;2023-04-24T10:33:05;15.60;99.90
12268;DHT22;6196;48.398;11.736;2023-04-24T10:35:41;15.80;99.90
12268;DHT22;6196;48.398;11.736;2023-04-24T10:38:14;15.80;99.90
12268;DHT22;6196;48.398;11.736;2023-04-24T10:40:43;15.90;99.90
12268;DHT22;6196;48.398;11.736;2023-04-24T10:43:10;15.80;99.90
12268;DHT22;6196;48.398;11.736;2023-04-24T10:46:00;15.40;99.90
12268;DHT22;6196;48.398;11.736;2023-04-24T10:48:29;15.50;99.90
12268;DHT22;6196;48.398;11.736;2023-04-24T10:50:56;15.70;99.90
12268;DHT22;6196;48.398;11.736;2023-04-24T10:53:25;15.90;99.90
12268;DHT22;6196;48.398;11.736;2023-04-24T10:56:05;15.70;99.90
12268;DHT22;6196;48.398;11.736;2023-04-24T10:58:42;16.20;99.90
12268;DHT22;6196;48.398;11.736;2023-04-24T11:01:31;16.00;99.90
12268;DHT22;6196;48.398;11.736;2023-04-24T11:04:01;16.10;99.90
12268;DHT22;6196;48.398;11.736;2023-04-24T11:06:36;16.00;99.90
12268;DHT22;6196;48.398;11.736;2023-04-24T11:09:05;15.80;99.90
12268;DHT22;6196;48.398;11.736;2023-04-24T11:11:35;15.60;99.90
12268;DHT22;6196;48.398;11.736;2023-04-24T11:14:06;14.90;99.90
12268;DHT22;6196;48.398;11.736;2023-04-24T11:22:00;13.30;99.90
12268;DHT22;6196;48.398;11.736;2023-04-24T11:24:40;12.50;99.90
12268;DHT22;6196;48.398;11.736;2023-04-24T11:27:20;12.20;99.90
12268;DHT22;6196;48.398;11.736;2023-04-24T11:29:48;12.20;99.90
12268;DHT22;6196;48.398;11.736;2023-04-24T11:35:17;11.70;99.90
12268;DHT22;6196;48.398;11.736;2023-04-24T11:37:46;11.60;99.90
12268;DHT22;6196;48.398;11.736;2023-04-24T11:40:37;11.80;99.90
12268;DHT22;6196;48.398;11.736;2023-04-24T11:43:06;11.60;99.90
12268;DHT22;6196;48.398;11.736;2023-04-24T11:45:33;11.90;99.90
12268;DHT22;6196;48.398;11.736;2023-04-24T11:48:02;11.70;99.90
12268;DHT22;6196;48.398;11.736;2023-04-24T11:50:30;11.90;99.90
12268;DHT22;6196;48.398;11.736;2023-04-24T11:52:57;12.10;99.90
12268;DHT22;6196;48.398;11.736;2023-04-24T11:55:27;12.20;99.90
12268;DHT22;6196;48.398;11.736;2023-04-24T11:57:59;12.10;99.90
12268;DHT22;6196;48.398;11.736;2023-04-24T12:00:27;12.30;99.90
12268;DHT22;6196;48.398;11.736;2023-04-24T12:03:09;12.40;99.90
12268;DHT22;6196;48.398;11.736;2023-04-24T12:05:39;12.80;99.90
12268;DHT22;6196;48.398;11.736;2023-04-24T12:08:06;13.30;99.90
12268;DHT22;6196;48.398;11.736;2023-04-24T12:10:34;13.50;99.90
12268;DHT22;6196;48.398;11.736;2023-04-24T12:13:02;13.90;99.90
12268;DHT22;6196;48.398;11.736;2023-04-24T12:15:29;14.90;99.90
12268;DHT22;6196;48.398;11.736;2023-04-24T12:17:57;15.40;99.90
12268;DHT22;6196;48.398;11.736;2023-04-24T12:20:29;16.30;99.90
12268;DHT22;6196;48.398;11.736;2023-04-24T12:22:59;16.80;99.90
12268;DHT22;6196;48.398;11.736;2023-04-24T12:25:28;17.20;99.90
12268;DHT22;6196;48.398;11.736;2023-04-24T12:30:35;17.40;99.90
12268;DHT22;6196;48.398;11.736;2023-04-24T12:33:06;17.80;99.90
12268;DHT22;6196;48.398;11.736;2023-04-24T12:35:33;17.80;99.90
12268;DHT22;6196;48.398;11.736;2023-04-24T12:38:09;18.10;99.90
12268;DHT22;6196;48.398;11.736;2023-04-24T12:40:40;18.60;99.90
12268;DHT22;6196;48.398;11.736;2023-04-24T12:43:20;18.60;99.90
12268;DHT22;6196;48.398;11.736;2023-04-24T12:45:47;18.30;99.90
12268;DHT22;6196;48.398;11.736;2023-04-24T12:48:15;17.80;99.90
12268;DHT22;6196;48.398;11.736;2023-04-24T12:50:43;17.40;99.90
12268;DHT22;6196;48.398;11.736;2023-04-24T12:53:13;16.90;99.90
12268;DHT22;6196;48.398;11.736;2023-04-24T12:55:41;16.20;99.90
12268;DHT22;6196;48.398;11.736;2023-04-24T12:58:08;15.60;99.90
12268;DHT22;6196;48.398;11.736;2023-04-24T13:00:35;15.40;99.90
12268;DHT22;6196;48.398;11.736;2023-04-24T13:03:02;15.60;99.90
12268;DHT22;6196;48.398;11.736;2023-04-24T13:05:30;16.10;99.90
12268;DHT22;6196;48.398;11.736;2023-04-24T13:07:57;16.60;99.90
12268;DHT22;6196;48.398;11.736;2023-04-24T13:10:24;16.60;99.90
12268;DHT22;6196;48.398;11.736;2023-04-24T13:12:51;16.30;99.90
12268;DHT22;6196;48.398;11.736;2023-04-24T13:15:18;15.90;99.90
12268;DHT22;6196;48.398;11.736;2023-04-24T13:17:45;15.70;99.90
12268;DHT22;6196;48.398;11.736;2023-04-24T13:20:12;15.40;99.90
12268;DHT22;6196;48.398;11.736;2023-04-24T13:22:39;15.20;99.90
12268;DHT22;6196;48.398;11.736;2023-04-24T13:25:06;15.50;99.90
12268;DHT22;6196;48.398;11.736;2023-04-24T13:27:33;16.30;99.90
12268;DHT22;6196;48.398;11.736;2023-04-24T13:30:00;17.10;99.90
12268;DHT22;6196;48.398;11.736;2023-04-24T13:32:27;17.90;99.90
12268;DHT22;6196;48.398;11.736;2023-04-24T13:34:56;18.30;99.90
12268;DHT22;6196;48.398;11.736;2023-04-24T13:37:23;18.90;99.90
12268;DHT22;6196;48.398;11.736;2023-04-24T13:39:50;18.90;99.90
12268;DHT22;6196;48.398;11.736;2023-04-24T13:42:18;18.70;99.90
12268;DHT22;6196;48.398;11.736;2023-04-24T13:44:46;18.40;99.90
12268;DHT22;6196;48.398;11.736;2023-04-24T13:47:13;18.10;99.90
12268;DHT22;6196;48.398;11.736;2023-04-24T13:49:40;18.40;99.90
12268;DHT22;6196;48.398;11.736;2023-04-24T13:52:06;19.00;99.90
12268;DHT22;6196;48.398;11.736;2023-04-24T13:54:33;19.40;99.90
12268;DHT22;6196;48.398;11.736;2023-04-24T13:57:01;19.30;99.90
12268;DHT22;6196;48.398;11.736;2023-04-24T13:59:29;18.20;99.90
12268;DHT22;6196;48.398;11.736;2023-04-24T14:01:56;16.90;99.90
12268;DHT22;6196;48.398;11.736;2023-04-24T14:04:23;16.00;99.90
12268;DHT22;6196;48.398;11.736;2023-04-24T14:06:50;15.60;99.90
12268;DHT22;6196;48.398;11.736;2023-04-24T14:09:17;15.30;99.90
12268;DHT22;6196;48.398;11.736;2023-04-24T14:11:44;15.10;99.90
12268;DHT22;6196;48.398;11.736;2023-04-24T14:14:11;14.80;99.90
12268;DHT22;6196;48.398;11.736;2023-04-24T14:16:38;14.70;99.90
12268;DHT22;6196;48.398;11.736;2023-04-24T14:19:05;15.40;99.90
12268;DHT22;6196;48.398;11.736;2023-04-24T14:21:33;16.30;99.90
12268;DHT22;6196;48.398;11.736;2023-04-24T14:24:00;18.20;99.90
12268;DHT22;6196;48.398;11.736;2023-04-24T14:26:26;19.90;99.90
12268;DHT22;6196;48.398;11.736;2023-04-24T14:28:53;21.20;99.90
12268;DHT22;6196;48.398;11.736;2023-04-24T14:31:39;21.70;99.90
12268;DHT22;6196;48.398;11.736;2023-04-24T14:34:06;20.40;99.20
12268;DHT22;6196;48.398;11.736;2023-04-24T14:36:33;19.40;98.90
12268;DHT22;6196;48.398;11.736;2023-04-24T14:39:00;18.70;98.10
12268;DHT22;6196;48.398;11.736;2023-04-24T14:41:29;18.30;98.60
12268;DHT22;6196;48.398;11.736;2023-04-24T14:43:56;18.30;99.40
12268;DHT22;6196;48.398;11.736;2023-04-24T14:46:23;18.30;99.40
12268;DHT22;6196;48.398;11.736;2023-04-24T14:48:50;18.30;99.60
12268;DHT22;6196;48.398;11.736;2023-04-24T14:51:17;18.60;99.30
12268;DHT22;6196;48.398;11.736;2023-04-24T14:53:44;18.40;99.20
12268;DHT22;6196;48.398;11.736;2023-04-24T14:56:14;17.90;99.40
12268;DHT22;6196;48.398;11.736;2023-04-24T14:58:41;17.10;99.90
12268;DHT22;6196;48.398;11.736;2023-04-24T15:01:08;16.30;99.90
12268;DHT22;6196;48.398;11.736;2023-04-24T15:03:35;16.00;99.90
12268;DHT22;6196;48.398;11.736;2023-04-24T15:06:02;15.60;99.90
12268;DHT22;6196;48.398;11.736;2023-04-24T15:08:29;15.20;99.90
12268;DHT22;6196;48.398;11.736;2023-04-24T15:10:56;15.00;99.90
12268;DHT22;6196;48.398;11.736;2023-04-24T15:13:23;15.30;99.90
12268;DHT22;6196;48.398;11.736;2023-04-24T15:15:50;15.60;99.90
12268;DHT22;6196;48.398;11.736;2023-04-24T15:18:17;15.70;99.90
12268;DHT22;6196;48.398;11.736;2023-04-24T15:20:44;15.70;99.90
12268;DHT22;6196;48.398;11.736;2023-04-24T15:23:11;15.50;99.90
12268;DHT22;6196;48.398;11.736;2023-04-24T15:25:38;15.20;99.90
12268;DHT22;6196;48.398;11.736;2023-04-24T15:28:05;15.10;99.90
12268;DHT22;6196;48.398;11.736;2023-04-24T15:30:32;14.80;99.90
12268;DHT22;6196;48.398;11.736;2023-04-24T15:33:00;14.70;99.90
12268;DHT22;6196;48.398;11.736;2023-04-24T15:35:28;14.40;99.90
12268;DHT22;6196;48.398;11.736;2023-04-24T15:37:55;14.90;99.90
12268;DHT22;6196;48.398;11.736;2023-04-24T15:40:22;16.40;99.90
12268;DHT22;6196;48.398;11.736;2023-04-24T15:42:49;17.20;99.90
12268;DHT22;6196;48.398;11.736;2023-04-24T15:45:16;17.80;99.90
12268;DHT22;6196;48.398;11.736;2023-04-24T15:47:44;18.30;99.90